sensor_id;sensor_type;location;lat;lon;timestamp;P1;durP1;ratioP1;P2;durP2;ratioP2
10491;SDS011;5293;51.464;-2.566;2023-12-22T00:02:01;6.93;;;2.43;;
10491;SDS011;5293;51.464;-2.566;2023-12-22T00:04:26;5.80;;;2.00;;
10491;SDS011;5293;51.464;-2.566;2023-12-22T00:06:52;3.57;;;1.83;;
10491;SDS011;5293;51.464;-2.566;2023-12-22T00:09:17;4.63;;;2.00;;
10491;SDS011;5293;51.464;-2.566;2023-12-22T00:11:43;6.07;;;2.60;;
10491;SDS011;5293;51.464;-2.566;2023-12-22T00:14:09;6.03;;;1.70;;
10491;SDS011;5293;51.464;-2.566;2023-12-22T00:16:36;8.57;;;1.77;;
10491;SDS011;5293;51.464;-2.566;2023-12-22T00:19:02;2.97;;;1.50;;
10491;SDS011;5293;51.464;-2.566;2023-12-22T00:21:28;4.83;;;1.67;;
10491;SDS011;5293;51.464;-2.566;2023-12-22T00:23:54;5.23;;;2.10;;
10491;SDS011;5293;51.464;-2.566;2023-12-22T00:26:19;6.03;;;2.03;;
10491;SDS011;5293;51.464;-2.566;2023-12-22T00:28:45;4.87;;;1.90;;
10491;SDS011;5293;51.464;-2.566;2023-12-22T00:31:11;6.20;;;1.43;;
10491;SDS011;5293;51.464;-2.566;2023-12-22T00:33:37;4.40;;;1.37;;
10491;SDS011;5293;51.464;-2.566;2023-12-22T00:36:03;2.70;;;1.20;;
10491;SDS011;5293;51.464;-2.566;2023-12-22T00:38:29;4.77;;;1.83;;
10491;SDS011;5293;51.464;-2.566;2023-12-22T00:40:56;5.37;;;1.70;;
10491;SDS011;5293;51.464;-2.566;2023-12-22T00:43:21;4.63;;;2.17;;
10491;SDS011;5293;51.464;-2.566;2023-12-22T00:45:47;5.63;;;1.70;;
10491;SDS011;5293;51.464;-2.566;2023-12-22T00:48:13;8.60;;;2.13;;
10491;SDS011;5293;51.464;-2.566;2023-12-22T00:50:38;10.33;;;2.20;;
10491;SDS011;5293;51.464;-2.566;2023-12-22T00:53:04;10.87;;;2.60;;
10491;SDS011;5293;51.464;-2.566;2023-12-22T00:55:29;5.40;;;1.83;;
10491;SDS011;5293;51.464;-2.566;2023-12-22T00:57:55;9.30;;;2.40;;
10491;SDS011;5293;51.464;-2.566;2023-12-22T01:00:21;8.43;;;1.93;;
10491;SDS011;5293;51.464;-2.566;2023-12-22T01:02:46;3.47;;;1.80;;
10491;SDS011;5293;51.464;-2.566;2023-12-22T01:05:12;6.70;;;2.07;;
10491;SDS011;5293;51.464;-2.566;2023-12-22T01:07:38;7.27;;;2.00;;
10491;SDS011;5293;51.464;-2.566;2023-12-22T01:10:04;8.50;;;2.00;;
10491;SDS011;5293;51.464;-2.566;2023-12-22T01:12:30;3.20;;;1.80;;
10491;SDS011;5293;51.464;-2.566;2023-12-22T01:14:56;4.50;;;1.90;;
10491;SDS011;5293;51.464;-2.566;2023-12-22T01:17:22;10.80;;;2.00;;
10491;SDS011;5293;51.464;-2.566;2023-12-22T01:19:48;4.27;;;1.90;;
10491;SDS011;5293;51.464;-2.566;2023-12-22T01:22:14;6.43;;;2.10;;
10491;SDS011;5293;51.464;-2.566;2023-12-22T01:24:39;10.00;;;2.40;;
10491;SDS011;5293;51.464;-2.566;2023-12-22T01:27:08;5.53;;;2.00;;
10491;SDS011;5293;51.464;-2.566;2023-12-22T01:29:34;6.53;;;2.10;;
10491;SDS011;5293;51.464;-2.566;2023-12-22T01:32:00;4.97;;;1.97;;
10491;SDS011;5293;51.464;-2.566;2023-12-22T01:34:26;13.00;;;2.73;;
10491;SDS011;5293;51.464;-2.566;2023-12-22T01:36:51;3.93;;;1.70;;
10491;SDS011;5293;51.464;-2.566;2023-12-22T01:39:17;6.47;;;2.00;;
10491;SDS011;5293;51.464;-2.566;2023-12-22T01:41:43;6.50;;;2.03;;
10491;SDS011;5293;51.464;-2.566;2023-12-22T01:44:11;6.37;;;2.43;;
10491;SDS011;5293;51.464;-2.566;2023-12-22T01:46:37;8.03;;;1.80;;
10491;SDS011;5293;51.464;-2.566;2023-12-22T01:49:07;9.27;;;2.23;;
10491;SDS011;5293;51.464;-2.566;2023-12-22T01:51:33;7.90;;;2.20;;
10491;SDS011;5293;51.464;-2.566;2023-12-22T01:54:02;9.47;;;2.07;;
10491;SDS011;5293;51.464;-2.566;2023-12-22T01:56:28;7.83;;;2.20;;
10491;SDS011;5293;51.464;-2.566;2023-12-22T01:58:55;11.30;;;2.40;;
10491;SDS011;5293;51.464;-2.566;2023-12-22T02:01:24;4.47;;;2.00;;
10491;SDS011;5293;51.464;-2.566;2023-12-22T02:03:52;6.63;;;2.30;;
10491;SDS011;5293;51.464;-2.566;2023-12-22T02:06:19;6.73;;;1.83;;
10491;SDS011;5293;51.464;-2.566;2023-12-22T02:08:49;4.93;;;1.60;;
10491;SDS011;5293;51.464;-2.566;2023-12-22T02:11:15;5.90;;;1.60;;
10491;SDS011;5293;51.464;-2.566;2023-12-22T02:13:43;8.37;;;2.50;;
10491;SDS011;5293;51.464;-2.566;2023-12-22T02:18:58;7.57;;;1.90;;
10491;SDS011;5293;51.464;-2.566;2023-12-22T02:21:27;6.53;;;1.73;;
10491;SDS011;5293;51.464;-2.566;2023-12-22T02:23:53;4.13;;;1.90;;
10491;SDS011;5293;51.464;-2.566;2023-12-22T02:26:29;7.17;;;2.23;;
10491;SDS011;5293;51.464;-2.566;2023-12-22T02:29:05;11.33;;;2.50;;
10491;SDS011;5293;51.464;-2.566;2023-12-22T02:31:39;7.17;;;2.07;;
10491;SDS011;5293;51.464;-2.566;2023-12-22T02:34:12;4.47;;;2.23;;
10491;SDS011;5293;51.464;-2.566;2023-12-22T02:36:42;6.87;;;1.90;;
10491;SDS011;5293;51.464;-2.566;2023-12-22T02:39:09;10.70;;;2.37;;
10491;SDS011;5293;51.464;-2.566;2023-12-22T02:41:36;4.97;;;1.80;;
10491;SDS011;5293;51.464;-2.566;2023-12-22T02:44:02;5.80;;;1.77;;
10491;SDS011;5293;51.464;-2.566;2023-12-22T02:46:29;7.77;;;2.30;;
10491;SDS011;5293;51.464;-2.566;2023-12-22T02:48:54;3.53;;;1.70;;
10491;SDS011;5293;51.464;-2.566;2023-12-22T02:51:20;5.40;;;1.80;;
10491;SDS011;5293;51.464;-2.566;2023-12-22T02:53:45;5.13;;;1.30;;
10491;SDS011;5293;51.464;-2.566;2023-12-22T02:56:11;2.83;;;1.40;;
10491;SDS011;5293;51.464;-2.566;2023-12-22T02:58:37;3.33;;;1.40;;
10491;SDS011;5293;51.464;-2.566;2023-12-22T03:01:02;5.37;;;1.63;;
10491;SDS011;5293;51.464;-2.566;2023-12-22T03:03:28;3.47;;;1.30;;
10491;SDS011;5293;51.464;-2.566;2023-12-22T03:05:54;4.60;;;1.30;;
10491;SDS011;5293;51.464;-2.566;2023-12-22T03:08:19;11.80;;;1.40;;
10491;SDS011;5293;51.464;-2.566;2023-12-22T03:10:45;6.77;;;2.07;;
10491;SDS011;5293;51.464;-2.566;2023-12-22T03:13:10;3.80;;;1.60;;
10491;SDS011;5293;51.464;-2.566;2023-12-22T03:15:36;5.23;;;1.60;;
10491;SDS011;5293;51.464;-2.566;2023-12-22T03:18:02;7.17;;;1.83;;
10491;SDS011;5293;51.464;-2.566;2023-12-22T03:20:27;9.13;;;1.90;;
10491;SDS011;5293;51.464;-2.566;2023-12-22T03:22:53;4.90;;;1.70;;
10491;SDS011;5293;51.464;-2.566;2023-12-22T03:25:18;10.63;;;2.10;;
10491;SDS011;5293;51.464;-2.566;2023-12-22T03:27:44;4.30;;;1.80;;
10491;SDS011;5293;51.464;-2.566;2023-12-22T03:30:10;3.87;;;2.27;;
10491;SDS011;5293;51.464;-2.566;2023-12-22T03:32:36;6.87;;;2.17;;
10491;SDS011;5293;51.464;-2.566;2023-12-22T03:35:01;8.23;;;2.10;;
10491;SDS011;5293;51.464;-2.566;2023-12-22T03:37:27;2.73;;;1.70;;
10491;SDS011;5293;51.464;-2.566;2023-12-22T03:39:53;5.27;;;1.77;;
10491;SDS011;5293;51.464;-2.566;2023-12-22T03:42:19;4.77;;;1.77;;
10491;SDS011;5293;51.464;-2.566;2023-12-22T03:44:44;3.00;;;1.90;;
10491;SDS011;5293;51.464;-2.566;2023-12-22T03:47:10;4.23;;;1.67;;
10491;SDS011;5293;51.464;-2.566;2023-12-22T03:49:35;2.20;;;1.50;;
10491;SDS011;5293;51.464;-2.566;2023-12-22T03:52:01;4.43;;;1.40;;
10491;SDS011;5293;51.464;-2.566;2023-12-22T03:54:27;6.60;;;1.60;;
10491;SDS011;5293;51.464;-2.566;2023-12-22T03:56:52;5.50;;;1.40;;
10491;SDS011;5293;51.464;-2.566;2023-12-22T03:59:18;3.17;;;1.20;;
10491;SDS011;5293;51.464;-2.566;2023-12-22T04:01:44;2.70;;;1.10;;
10491;SDS011;5293;51.464;-2.566;2023-12-22T04:04:14;5.00;;;1.50;;
10491;SDS011;5293;51.464;-2.566;2023-12-22T04:06:40;1.93;;;1.10;;
10491;SDS011;5293;51.464;-2.566;2023-12-22T04:09:06;2.57;;;0.97;;
10491;SDS011;5293;51.464;-2.566;2023-12-22T04:11:31;2.60;;;1.30;;
10491;SDS011;5293;51.464;-2.566;2023-12-22T04:13:57;3.30;;;1.37;;
10491;SDS011;5293;51.464;-2.566;2023-12-22T04:16:23;1.40;;;1.07;;
10491;SDS011;5293;51.464;-2.566;2023-12-22T04:18:48;4.97;;;1.30;;
10491;SDS011;5293;51.464;-2.566;2023-12-22T04:21:14;4.90;;;2.17;;
10491;SDS011;5293;51.464;-2.566;2023-12-22T04:23:40;2.53;;;1.07;;
10491;SDS011;5293;51.464;-2.566;2023-12-22T04:26:05;2.63;;;1.33;;
10491;SDS011;5293;51.464;-2.566;2023-12-22T04:28:31;3.20;;;1.30;;
10491;SDS011;5293;51.464;-2.566;2023-12-22T04:30:57;3.23;;;1.03;;
10491;SDS011;5293;51.464;-2.566;2023-12-22T04:33:22;2.97;;;1.30;;
10491;SDS011;5293;51.464;-2.566;2023-12-22T04:35:48;1.70;;;0.93;;
10491;SDS011;5293;51.464;-2.566;2023-12-22T04:38:14;4.10;;;0.97;;
10491;SDS011;5293;51.464;-2.566;2023-12-22T04:40:39;5.67;;;1.50;;
10491;SDS011;5293;51.464;-2.566;2023-12-22T04:43:05;4.43;;;1.00;;
10491;SDS011;5293;51.464;-2.566;2023-12-22T04:45:30;3.30;;;1.07;;
10491;SDS011;5293;51.464;-2.566;2023-12-22T04:47:56;3.17;;;0.90;;
10491;SDS011;5293;51.464;-2.566;2023-12-22T04:50:22;4.50;;;1.30;;
10491;SDS011;5293;51.464;-2.566;2023-12-22T04:52:48;2.10;;;0.73;;
10491;SDS011;5293;51.464;-2.566;2023-12-22T04:55:13;4.10;;;0.97;;
10491;SDS011;5293;51.464;-2.566;2023-12-22T04:57:40;2.40;;;1.10;;
10491;SDS011;5293;51.464;-2.566;2023-12-22T05:00:06;2.10;;;0.90;;
10491;SDS011;5293;51.464;-2.566;2023-12-22T05:02:32;2.80;;;1.27;;
10491;SDS011;5293;51.464;-2.566;2023-12-22T05:04:57;5.33;;;1.00;;
10491;SDS011;5293;51.464;-2.566;2023-12-22T05:07:23;5.60;;;1.30;;
10491;SDS011;5293;51.464;-2.566;2023-12-22T05:09:49;4.23;;;1.37;;
10491;SDS011;5293;51.464;-2.566;2023-12-22T05:12:14;4.87;;;1.23;;
10491;SDS011;5293;51.464;-2.566;2023-12-22T05:14:40;3.13;;;1.10;;
10491;SDS011;5293;51.464;-2.566;2023-12-22T05:17:05;2.80;;;1.30;;
10491;SDS011;5293;51.464;-2.566;2023-12-22T05:19:31;4.57;;;1.27;;
10491;SDS011;5293;51.464;-2.566;2023-12-22T05:21:57;3.33;;;1.40;;
10491;SDS011;5293;51.464;-2.566;2023-12-22T05:24:22;7.73;;;1.40;;
10491;SDS011;5293;51.464;-2.566;2023-12-22T05:26:48;4.57;;;1.63;;
10491;SDS011;5293;51.464;-2.566;2023-12-22T05:29:14;4.17;;;1.33;;
10491;SDS011;5293;51.464;-2.566;2023-12-22T05:31:39;4.43;;;1.37;;
10491;SDS011;5293;51.464;-2.566;2023-12-22T05:34:05;3.60;;;1.80;;
10491;SDS011;5293;51.464;-2.566;2023-12-22T05:36:31;7.70;;;2.37;;
10491;SDS011;5293;51.464;-2.566;2023-12-22T05:38:57;6.27;;;1.50;;
10491;SDS011;5293;51.464;-2.566;2023-12-22T05:41:23;7.20;;;2.33;;
10491;SDS011;5293;51.464;-2.566;2023-12-22T05:43:48;6.40;;;1.87;;
10491;SDS011;5293;51.464;-2.566;2023-12-22T05:46:14;4.17;;;1.40;;
10491;SDS011;5293;51.464;-2.566;2023-12-22T05:48:40;4.47;;;1.50;;
10491;SDS011;5293;51.464;-2.566;2023-12-22T05:51:05;1.97;;;1.23;;
10491;SDS011;5293;51.464;-2.566;2023-12-22T05:53:38;4.70;;;1.13;;
10491;SDS011;5293;51.464;-2.566;2023-12-22T05:56:05;6.60;;;1.43;;
10491;SDS011;5293;51.464;-2.566;2023-12-22T05:58:42;5.77;;;1.70;;
10491;SDS011;5293;51.464;-2.566;2023-12-22T06:01:07;4.27;;;1.00;;
10491;SDS011;5293;51.464;-2.566;2023-12-22T06:03:38;4.43;;;1.30;;
10491;SDS011;5293;51.464;-2.566;2023-12-22T06:06:05;4.13;;;1.07;;
10491;SDS011;5293;51.464;-2.566;2023-12-22T06:08:30;5.87;;;1.20;;
10491;SDS011;5293;51.464;-2.566;2023-12-22T06:10:56;5.47;;;2.57;;
10491;SDS011;5293;51.464;-2.566;2023-12-22T06:13:22;5.30;;;1.47;;
10491;SDS011;5293;51.464;-2.566;2023-12-22T06:15:49;4.50;;;1.63;;
10491;SDS011;5293;51.464;-2.566;2023-12-22T06:18:14;4.73;;;1.33;;
10491;SDS011;5293;51.464;-2.566;2023-12-22T06:20:40;8.27;;;2.17;;
10491;SDS011;5293;51.464;-2.566;2023-12-22T06:23:06;7.50;;;1.70;;
10491;SDS011;5293;51.464;-2.566;2023-12-22T06:25:31;6.97;;;1.87;;
10491;SDS011;5293;51.464;-2.566;2023-12-22T06:27:57;5.23;;;2.00;;
10491;SDS011;5293;51.464;-2.566;2023-12-22T06:30:23;5.43;;;2.10;;
10491;SDS011;5293;51.464;-2.566;2023-12-22T06:32:48;9.43;;;2.10;;
10491;SDS011;5293;51.464;-2.566;2023-12-22T06:35:14;6.40;;;2.00;;
10491;SDS011;5293;51.464;-2.566;2023-12-22T06:37:40;7.87;;;1.93;;
10491;SDS011;5293;51.464;-2.566;2023-12-22T06:40:06;7.73;;;1.90;;
10491;SDS011;5293;51.464;-2.566;2023-12-22T06:42:32;6.67;;;2.23;;
10491;SDS011;5293;51.464;-2.566;2023-12-22T06:44:57;7.67;;;1.97;;
10491;SDS011;5293;51.464;-2.566;2023-12-22T06:47:23;8.70;;;2.20;;
10491;SDS011;5293;51.464;-2.566;2023-12-22T06:49:49;6.60;;;1.87;;
10491;SDS011;5293;51.464;-2.566;2023-12-22T06:52:14;11.53;;;2.20;;
10491;SDS011;5293;51.464;-2.566;2023-12-22T06:54:41;11.93;;;2.10;;
10491;SDS011;5293;51.464;-2.566;2023-12-22T06:57:06;10.73;;;2.30;;
10491;SDS011;5293;51.464;-2.566;2023-12-22T06:59:32;13.90;;;2.03;;
10491;SDS011;5293;51.464;-2.566;2023-12-22T07:01:58;14.70;;;3.60;;
10491;SDS011;5293;51.464;-2.566;2023-12-22T07:07:33;12.17;;;3.20;;
10491;SDS011;5293;51.464;-2.566;2023-12-22T07:09:59;12.50;;;3.23;;
10491;SDS011;5293;51.464;-2.566;2023-12-22T07:12:24;9.07;;;1.93;;
10491;SDS011;5293;51.464;-2.566;2023-12-22T07:14:50;13.97;;;3.07;;
10491;SDS011;5293;51.464;-2.566;2023-12-22T07:17:16;9.37;;;2.70;;
10491;SDS011;5293;51.464;-2.566;2023-12-22T07:19:41;6.97;;;2.03;;
10491;SDS011;5293;51.464;-2.566;2023-12-22T07:22:07;13.57;;;3.13;;
10491;SDS011;5293;51.464;-2.566;2023-12-22T07:24:33;12.70;;;2.67;;
10491;SDS011;5293;51.464;-2.566;2023-12-22T07:26:59;16.47;;;3.10;;
10491;SDS011;5293;51.464;-2.566;2023-12-22T07:29:24;15.10;;;3.37;;
10491;SDS011;5293;51.464;-2.566;2023-12-22T07:31:50;13.13;;;2.97;;
10491;SDS011;5293;51.464;-2.566;2023-12-22T07:34:16;10.17;;;2.63;;
10491;SDS011;5293;51.464;-2.566;2023-12-22T07:36:42;14.50;;;3.40;;
10491;SDS011;5293;51.464;-2.566;2023-12-22T07:39:08;16.53;;;3.20;;
10491;SDS011;5293;51.464;-2.566;2023-12-22T07:41:34;12.20;;;2.73;;
10491;SDS011;5293;51.464;-2.566;2023-12-22T07:44:00;12.87;;;2.70;;
10491;SDS011;5293;51.464;-2.566;2023-12-22T07:46:28;11.00;;;3.87;;
10491;SDS011;5293;51.464;-2.566;2023-12-22T07:48:54;12.93;;;2.97;;
10491;SDS011;5293;51.464;-2.566;2023-12-22T07:51:20;13.03;;;2.90;;
10491;SDS011;5293;51.464;-2.566;2023-12-22T07:53:45;12.87;;;2.97;;
10491;SDS011;5293;51.464;-2.566;2023-12-22T07:56:11;14.77;;;2.50;;
10491;SDS011;5293;51.464;-2.566;2023-12-22T07:58:37;16.07;;;3.07;;
10491;SDS011;5293;51.464;-2.566;2023-12-22T08:01:03;11.80;;;2.87;;
10491;SDS011;5293;51.464;-2.566;2023-12-22T08:03:30;11.10;;;3.97;;
10491;SDS011;5293;51.464;-2.566;2023-12-22T08:05:57;16.23;;;3.43;;
10491;SDS011;5293;51.464;-2.566;2023-12-22T08:08:22;14.67;;;3.03;;
10491;SDS011;5293;51.464;-2.566;2023-12-22T08:10:48;19.87;;;3.00;;
10491;SDS011;5293;51.464;-2.566;2023-12-22T08:13:14;11.03;;;2.90;;
10491;SDS011;5293;51.464;-2.566;2023-12-22T08:15:39;8.50;;;2.50;;
10491;SDS011;5293;51.464;-2.566;2023-12-22T08:18:06;14.67;;;3.43;;
10491;SDS011;5293;51.464;-2.566;2023-12-22T08:20:32;17.27;;;2.63;;
10491;SDS011;5293;51.464;-2.566;2023-12-22T08:22:57;12.20;;;2.70;;
10491;SDS011;5293;51.464;-2.566;2023-12-22T08:25:23;15.33;;;3.30;;
10491;SDS011;5293;51.464;-2.566;2023-12-22T08:27:48;11.13;;;2.77;;
10491;SDS011;5293;51.464;-2.566;2023-12-22T08:30:14;14.10;;;2.77;;
10491;SDS011;5293;51.464;-2.566;2023-12-22T08:32:40;14.03;;;3.43;;
10491;SDS011;5293;51.464;-2.566;2023-12-22T08:35:06;11.53;;;2.73;;
10491;SDS011;5293;51.464;-2.566;2023-12-22T08:37:32;14.57;;;3.10;;
10491;SDS011;5293;51.464;-2.566;2023-12-22T08:39:58;10.47;;;2.40;;
10491;SDS011;5293;51.464;-2.566;2023-12-22T08:42:24;13.00;;;2.63;;
10491;SDS011;5293;51.464;-2.566;2023-12-22T08:44:54;11.73;;;2.60;;
10491;SDS011;5293;51.464;-2.566;2023-12-22T08:47:20;14.30;;;3.13;;
10491;SDS011;5293;51.464;-2.566;2023-12-22T08:49:45;13.93;;;3.40;;
10491;SDS011;5293;51.464;-2.566;2023-12-22T08:52:11;10.30;;;2.70;;
10491;SDS011;5293;51.464;-2.566;2023-12-22T08:54:38;13.37;;;3.30;;
10491;SDS011;5293;51.464;-2.566;2023-12-22T08:57:04;16.13;;;3.30;;
10491;SDS011;5293;51.464;-2.566;2023-12-22T08:59:30;13.67;;;2.70;;
10491;SDS011;5293;51.464;-2.566;2023-12-22T09:01:55;13.97;;;3.10;;
10491;SDS011;5293;51.464;-2.566;2023-12-22T09:04:21;16.87;;;3.10;;
10491;SDS011;5293;51.464;-2.566;2023-12-22T09:06:49;15.70;;;3.67;;
10491;SDS011;5293;51.464;-2.566;2023-12-22T09:09:15;9.93;;;2.87;;
10491;SDS011;5293;51.464;-2.566;2023-12-22T09:11:41;10.73;;;2.63;;
10491;SDS011;5293;51.464;-2.566;2023-12-22T09:14:07;10.80;;;3.47;;
10491;SDS011;5293;51.464;-2.566;2023-12-22T09:16:36;13.37;;;2.63;;
10491;SDS011;5293;51.464;-2.566;2023-12-22T09:30:14;13.93;;;2.83;;
10491;SDS011;5293;51.464;-2.566;2023-12-22T09:32:42;10.97;;;2.27;;
10491;SDS011;5293;51.464;-2.566;2023-12-22T09:35:08;12.10;;;2.87;;
10491;SDS011;5293;51.464;-2.566;2023-12-22T09:37:34;9.57;;;2.20;;
10491;SDS011;5293;51.464;-2.566;2023-12-22T09:40:00;9.60;;;2.70;;
10491;SDS011;5293;51.464;-2.566;2023-12-22T09:42:25;9.90;;;2.00;;
10491;SDS011;5293;51.464;-2.566;2023-12-22T09:44:52;14.87;;;2.60;;
10491;SDS011;5293;51.464;-2.566;2023-12-22T09:47:20;17.37;;;3.50;;
10491;SDS011;5293;51.464;-2.566;2023-12-22T09:49:47;12.57;;;2.20;;
10491;SDS011;5293;51.464;-2.566;2023-12-22T09:52:14;12.90;;;3.03;;
10491;SDS011;5293;51.464;-2.566;2023-12-22T09:54:44;9.87;;;2.57;;
10491;SDS011;5293;51.464;-2.566;2023-12-22T09:57:11;13.20;;;2.63;;
10491;SDS011;5293;51.464;-2.566;2023-12-22T09:59:37;13.07;;;2.80;;
10491;SDS011;5293;51.464;-2.566;2023-12-22T10:02:04;13.67;;;2.60;;
10491;SDS011;5293;51.464;-2.566;2023-12-22T10:04:32;10.43;;;2.90;;
10491;SDS011;5293;51.464;-2.566;2023-12-22T10:06:58;19.00;;;3.23;;
10491;SDS011;5293;51.464;-2.566;2023-12-22T10:09:26;14.53;;;3.00;;
10491;SDS011;5293;51.464;-2.566;2023-12-22T10:11:52;14.27;;;2.60;;
10491;SDS011;5293;51.464;-2.566;2023-12-22T10:14:21;11.07;;;2.63;;
10491;SDS011;5293;51.464;-2.566;2023-12-22T10:16:48;13.30;;;2.43;;
10491;SDS011;5293;51.464;-2.566;2023-12-22T10:19:15;22.03;;;4.10;;
10491;SDS011;5293;51.464;-2.566;2023-12-22T10:21:41;9.67;;;3.40;;
10491;SDS011;5293;51.464;-2.566;2023-12-22T10:24:07;9.83;;;2.70;;
10491;SDS011;5293;51.464;-2.566;2023-12-22T10:26:32;17.87;;;3.80;;
10491;SDS011;5293;51.464;-2.566;2023-12-22T10:28:58;13.83;;;4.17;;
10491;SDS011;5293;51.464;-2.566;2023-12-22T10:31:24;15.73;;;4.57;;
10491;SDS011;5293;51.464;-2.566;2023-12-22T10:33:50;17.67;;;4.03;;
10491;SDS011;5293;51.464;-2.566;2023-12-22T10:36:16;13.33;;;3.50;;
10491;SDS011;5293;51.464;-2.566;2023-12-22T10:38:42;10.23;;;2.87;;
10491;SDS011;5293;51.464;-2.566;2023-12-22T10:41:08;8.00;;;2.67;;
10491;SDS011;5293;51.464;-2.566;2023-12-22T10:43:40;11.33;;;3.03;;
10491;SDS011;5293;51.464;-2.566;2023-12-22T10:46:06;12.00;;;3.37;;
10491;SDS011;5293;51.464;-2.566;2023-12-22T10:48:36;17.03;;;2.50;;
10491;SDS011;5293;51.464;-2.566;2023-12-22T10:51:01;11.37;;;2.97;;
10491;SDS011;5293;51.464;-2.566;2023-12-22T10:53:27;13.30;;;3.80;;
10491;SDS011;5293;51.464;-2.566;2023-12-22T10:55:53;14.73;;;3.07;;
10491;SDS011;5293;51.464;-2.566;2023-12-22T10:58:19;11.20;;;2.70;;
10491;SDS011;5293;51.464;-2.566;2023-12-22T11:00:45;17.70;;;3.07;;
10491;SDS011;5293;51.464;-2.566;2023-12-22T11:03:13;15.27;;;3.40;;
10491;SDS011;5293;51.464;-2.566;2023-12-22T11:05:46;11.70;;;2.63;;
10491;SDS011;5293;51.464;-2.566;2023-12-22T11:08:13;15.33;;;3.20;;
10491;SDS011;5293;51.464;-2.566;2023-12-22T11:10:41;13.83;;;2.40;;
10491;SDS011;5293;51.464;-2.566;2023-12-22T11:13:11;14.67;;;3.20;;
10491;SDS011;5293;51.464;-2.566;2023-12-22T11:15:39;15.77;;;3.40;;
10491;SDS011;5293;51.464;-2.566;2023-12-22T11:18:06;11.63;;;3.50;;
10491;SDS011;5293;51.464;-2.566;2023-12-22T11:20:32;10.27;;;3.07;;
10491;SDS011;5293;51.464;-2.566;2023-12-22T11:23:00;12.53;;;2.70;;
10491;SDS011;5293;51.464;-2.566;2023-12-22T11:25:27;11.73;;;2.30;;
10491;SDS011;5293;51.464;-2.566;2023-12-22T11:27:55;11.83;;;3.27;;
10491;SDS011;5293;51.464;-2.566;2023-12-22T11:30:24;8.77;;;2.67;;
10491;SDS011;5293;51.464;-2.566;2023-12-22T11:32:50;15.37;;;3.37;;
10491;SDS011;5293;51.464;-2.566;2023-12-22T11:35:18;10.77;;;2.70;;
10491;SDS011;5293;51.464;-2.566;2023-12-22T11:49:37;13.37;;;2.77;;
10491;SDS011;5293;51.464;-2.566;2023-12-22T11:52:12;12.23;;;2.80;;
10491;SDS011;5293;51.464;-2.566;2023-12-22T12:02:35;13.80;;;2.23;;
10491;SDS011;5293;51.464;-2.566;2023-12-22T12:05:03;10.37;;;1.90;;
10491;SDS011;5293;51.464;-2.566;2023-12-22T12:10:13;8.13;;;2.17;;
10491;SDS011;5293;51.464;-2.566;2023-12-22T12:13:05;10.63;;;2.00;;
10491;SDS011;5293;51.464;-2.566;2023-12-22T12:15:33;11.40;;;2.70;;
10491;SDS011;5293;51.464;-2.566;2023-12-22T12:18:00;6.47;;;1.80;;
10491;SDS011;5293;51.464;-2.566;2023-12-22T12:20:26;9.60;;;2.63;;
10491;SDS011;5293;51.464;-2.566;2023-12-22T12:22:53;12.57;;;2.53;;
10491;SDS011;5293;51.464;-2.566;2023-12-22T12:25:21;9.40;;;2.67;;
10491;SDS011;5293;51.464;-2.566;2023-12-22T12:28:03;9.37;;;2.30;;
10491;SDS011;5293;51.464;-2.566;2023-12-22T12:30:37;10.60;;;2.40;;
10491;SDS011;5293;51.464;-2.566;2023-12-22T12:33:10;10.97;;;2.67;;
10491;SDS011;5293;51.464;-2.566;2023-12-22T12:35:37;10.10;;;2.93;;
10491;SDS011;5293;51.464;-2.566;2023-12-22T12:38:04;15.40;;;2.40;;
10491;SDS011;5293;51.464;-2.566;2023-12-22T12:40:30;8.87;;;2.57;;
10491;SDS011;5293;51.464;-2.566;2023-12-22T12:42:57;13.17;;;2.20;;
10491;SDS011;5293;51.464;-2.566;2023-12-22T12:45:27;12.53;;;3.43;;
10491;SDS011;5293;51.464;-2.566;2023-12-22T12:48:00;11.33;;;2.50;;
10491;SDS011;5293;51.464;-2.566;2023-12-22T12:50:28;8.20;;;2.40;;
10491;SDS011;5293;51.464;-2.566;2023-12-22T12:52:56;10.87;;;2.37;;
10491;SDS011;5293;51.464;-2.566;2023-12-22T12:55:23;7.47;;;2.57;;
10491;SDS011;5293;51.464;-2.566;2023-12-22T12:57:50;13.43;;;2.60;;
10491;SDS011;5293;51.464;-2.566;2023-12-22T13:00:38;9.63;;;2.70;;
10491;SDS011;5293;51.464;-2.566;2023-12-22T13:03:06;4.43;;;2.23;;
10491;SDS011;5293;51.464;-2.566;2023-12-22T13:05:32;12.30;;;2.07;;
10491;SDS011;5293;51.464;-2.566;2023-12-22T13:08:07;15.47;;;3.57;;
10491;SDS011;5293;51.464;-2.566;2023-12-22T13:10:34;8.03;;;2.00;;
10491;SDS011;5293;51.464;-2.566;2023-12-22T13:13:00;9.13;;;2.00;;
10491;SDS011;5293;51.464;-2.566;2023-12-22T13:15:26;10.63;;;2.23;;
10491;SDS011;5293;51.464;-2.566;2023-12-22T13:17:51;8.30;;;2.10;;
10491;SDS011;5293;51.464;-2.566;2023-12-22T13:20:17;9.77;;;2.33;;
10491;SDS011;5293;51.464;-2.566;2023-12-22T13:22:44;7.00;;;2.47;;
10491;SDS011;5293;51.464;-2.566;2023-12-22T13:25:09;11.60;;;2.20;;
10491;SDS011;5293;51.464;-2.566;2023-12-22T13:27:49;10.77;;;2.37;;
10491;SDS011;5293;51.464;-2.566;2023-12-22T13:30:18;12.00;;;2.30;;
10491;SDS011;5293;51.464;-2.566;2023-12-22T13:32:56;6.07;;;1.60;;
10491;SDS011;5293;51.464;-2.566;2023-12-22T13:35:22;11.87;;;1.80;;
10491;SDS011;5293;51.464;-2.566;2023-12-22T13:37:49;7.77;;;2.40;;
10491;SDS011;5293;51.464;-2.566;2023-12-22T13:40:15;6.17;;;1.83;;
10491;SDS011;5293;51.464;-2.566;2023-12-22T13:42:41;5.63;;;1.70;;
10491;SDS011;5293;51.464;-2.566;2023-12-22T13:45:11;10.80;;;2.13;;
10491;SDS011;5293;51.464;-2.566;2023-12-22T13:47:43;11.17;;;2.97;;
10491;SDS011;5293;51.464;-2.566;2023-12-22T13:50:15;6.70;;;2.03;;
10491;SDS011;5293;51.464;-2.566;2023-12-22T13:52:41;9.40;;;2.00;;
10491;SDS011;5293;51.464;-2.566;2023-12-22T13:57:38;8.00;;;2.30;;
10491;SDS011;5293;51.464;-2.566;2023-12-22T14:02:48;6.80;;;2.60;;
10491;SDS011;5293;51.464;-2.566;2023-12-22T14:05:14;7.90;;;2.20;;
10491;SDS011;5293;51.464;-2.566;2023-12-22T14:07:41;9.40;;;2.00;;
10491;SDS011;5293;51.464;-2.566;2023-12-22T14:10:08;3.97;;;1.67;;
10491;SDS011;5293;51.464;-2.566;2023-12-22T14:12:35;9.83;;;2.33;;
10491;SDS011;5293;51.464;-2.566;2023-12-22T14:15:08;10.77;;;2.10;;
10491;SDS011;5293;51.464;-2.566;2023-12-22T14:17:37;7.33;;;2.07;;
10491;SDS011;5293;51.464;-2.566;2023-12-22T14:20:03;8.60;;;2.10;;
10491;SDS011;5293;51.464;-2.566;2023-12-22T14:22:34;13.27;;;2.50;;
10491;SDS011;5293;51.464;-2.566;2023-12-22T14:25:03;7.00;;;2.13;;
10491;SDS011;5293;51.464;-2.566;2023-12-22T14:27:29;9.07;;;2.47;;
10491;SDS011;5293;51.464;-2.566;2023-12-22T14:29:55;7.47;;;2.10;;
10491;SDS011;5293;51.464;-2.566;2023-12-22T14:32:20;10.00;;;1.87;;
10491;SDS011;5293;51.464;-2.566;2023-12-22T14:47:21;6.10;;;1.53;;
10491;SDS011;5293;51.464;-2.566;2023-12-22T14:49:47;3.73;;;1.77;;
10491;SDS011;5293;51.464;-2.566;2023-12-22T14:52:13;4.53;;;1.93;;
10491;SDS011;5293;51.464;-2.566;2023-12-22T14:54:38;8.67;;;1.63;;
10491;SDS011;5293;51.464;-2.566;2023-12-22T14:57:04;6.03;;;1.83;;
10491;SDS011;5293;51.464;-2.566;2023-12-22T14:59:30;8.23;;;1.90;;
10491;SDS011;5293;51.464;-2.566;2023-12-22T15:01:56;9.90;;;1.87;;
10491;SDS011;5293;51.464;-2.566;2023-12-22T15:04:22;5.60;;;1.50;;
10491;SDS011;5293;51.464;-2.566;2023-12-22T15:06:48;9.03;;;1.80;;
10491;SDS011;5293;51.464;-2.566;2023-12-22T15:38:55;7.53;;;2.50;;
10491;SDS011;5293;51.464;-2.566;2023-12-22T15:41:21;8.87;;;1.50;;
10491;SDS011;5293;51.464;-2.566;2023-12-22T15:43:46;4.57;;;1.47;;
10491;SDS011;5293;51.464;-2.566;2023-12-22T15:46:12;4.03;;;1.40;;
10491;SDS011;5293;51.464;-2.566;2023-12-22T15:48:38;6.60;;;1.77;;
10491;SDS011;5293;51.464;-2.566;2023-12-22T15:51:07;6.13;;;1.37;;
10491;SDS011;5293;51.464;-2.566;2023-12-22T15:53:36;2.93;;;1.30;;
10491;SDS011;5293;51.464;-2.566;2023-12-22T15:56:09;4.83;;;1.33;;
10491;SDS011;5293;51.464;-2.566;2023-12-22T15:58:36;6.17;;;1.50;;
10491;SDS011;5293;51.464;-2.566;2023-12-22T16:01:03;5.97;;;1.40;;
10491;SDS011;5293;51.464;-2.566;2023-12-22T16:03:29;7.33;;;1.83;;
10491;SDS011;5293;51.464;-2.566;2023-12-22T16:05:54;3.50;;;1.20;;
10491;SDS011;5293;51.464;-2.566;2023-12-22T16:08:21;2.43;;;1.30;;